Time,TemperatureF,DewpointF,PressureIn,WindDirection,WindDirectionDegrees,WindSpeedMPH,WindSpeedGustMPH,Humidity,HourlyPrecipIn,Conditions,Clouds,dailyrainin,SoftwareType,DateUTC
2015-01-30 00:03:00,30.7,27.9,30.07,SE,143,5.0,6.0,89,0.00,,---,0.00,VWS V15.00,2015-01-30 05:03:00,
2015-01-30 00:08:00,30.7,27.9,30.06,SE,141,0.0,9.0,89,0.00,,---,0.00,VWS V15.00,2015-01-30 05:08:00,
2015-01-30 00:13:00,30.7,28.1,30.06,SE,141,0.0,5.0,90,0.00,,---,0.00,VWS V15.00,2015-01-30 05:13:00,
2015-01-30 00:17:00,30.6,28.0,30.06,SE,141,0.0,4.0,90,0.00,,---,0.00,VWS V15.00,2015-01-30 05:17:00,
2015-01-30 00:22:00,30.6,28.0,30.06,SE,141,0.0,4.0,90,0.00,,---,0.00,VWS V15.00,2015-01-30 05:22:00,
2015-01-30 00:27:00,30.6,28.0,30.05,SE,141,1.0,4.0,90,0.00,,---,0.00,VWS V15.00,2015-01-30 05:27:00,
2015-01-30 00:32:00,30.6,28.0,30.05,SE,140,0.0,4.0,90,0.00,,---,0.00,VWS V15.00,2015-01-30 05:32:00,
2015-01-30 00:37:00,30.6,28.0,30.05,SE,141,0.0,4.0,90,0.00,,---,0.00,VWS V15.00,2015-01-30 05:37:00,
2015-01-30 00:42:00,30.6,28.0,30.05,SE,141,0.0,4.0,90,0.00,,---,0.00,VWS V15.00,2015-01-30 05:42:00,
2015-01-30 00:47:00,30.7,28.1,30.04,SE,141,3.0,4.0,90,0.00,,---,0.00,VWS V15.00,2015-01-30 05:47:00,
2015-01-30 00:52:00,30.8,28.2,30.03,SE,137,3.0,7.0,90,0.00,,---,0.00,VWS V15.00,2015-01-30 05:52:00,
2015-01-30 00:57:00,30.9,28.3,30.03,SE,137,3.0,6.0,90,0.00,,---,0.00,VWS V15.00,2015-01-30 05:57:00,
2015-01-30 01:02:00,31.0,28.4,30.03,SE,137,2.0,7.0,90,0.00,,---,0.00,VWS V15.00,2015-01-30 06:02:00,
2015-01-30 01:07:00,31.0,28.4,30.03,SE,136,4.0,5.0,90,0.00,,---,0.00,VWS V15.00,2015-01-30 06:07:00,
2015-01-30 01:12:00,31.1,28.5,30.02,SE,129,0.0,5.0,90,0.00,,---,0.00,VWS V15.00,2015-01-30 06:12:00,
2015-01-30 01:17:00,31.2,28.6,30.02,SE,130,3.0,6.0,90,0.00,,---,0.00,VWS V15.00,2015-01-30 06:17:00,
2015-01-30 01:22:00,31.2,28.6,30.02,SE,129,4.0,6.0,90,0.00,,---,0.00,VWS V15.00,2015-01-30 06:22:00,
2015-01-30 01:27:00,31.3,28.7,30.02,SE,130,0.0,6.0,90,0.00,,---,0.00,VWS V15.00,2015-01-30 06:27:00,
2015-01-30 01:32:00,31.3,28.7,30.02,SE,130,0.0,6.0,90,0.00,,---,0.00,VWS V15.00,2015-01-30 06:32:00,
2015-01-30 01:37:00,31.4,28.8,30.02,SE,129,0.0,4.0,90,0.00,,---,0.00,VWS V15.00,2015-01-30 06:37:00,
2015-01-30 01:42:00,31.4,28.8,30.01,SE,129,1.0,3.0,90,0.00,,---,0.00,VWS V15.00,2015-01-30 06:42:00,
2015-01-30 01:47:00,31.4,28.8,30.01,SE,130,2.0,4.0,90,0.00,,---,0.00,VWS V15.00,2015-01-30 06:47:00,
2015-01-30 01:52:00,31.4,28.8,30.01,SE,130,0.0,4.0,90,0.00,,---,0.00,VWS V15.00,2015-01-30 06:52:00,
2015-01-30 01:57:00,31.5,28.9,30.01,SE,129,1.0,3.0,90,0.00,,---,0.00,VWS V15.00,2015-01-30 06:57:00,
2015-01-30 02:02:00,31.5,28.9,30.01,SE,130,2.0,5.0,90,0.00,,---,0.00,VWS V15.00,2015-01-30 07:02:00,
2015-01-30 02:07:00,31.5,28.9,30.01,SE,130,0.0,3.0,90,0.00,,---,0.00,VWS V15.00,2015-01-30 07:07:00,
2015-01-30 02:12:00,31.6,29.0,30.00,SE,130,0.0,4.0,90,0.00,,---,0.00,VWS V15.00,2015-01-30 07:12:00,
2015-01-30 02:17:00,31.6,29.0,30.00,SE,129,3.0,5.0,90,0.00,,---,0.00,VWS V15.00,2015-01-30 07:17:00,
2015-01-30 02:22:00,31.6,29.0,30.00,SE,130,1.0,6.0,90,0.00,,---,0.00,VWS V15.00,2015-01-30 07:22:00,
2015-01-30 02:27:00,31.7,29.1,29.99,SE,130,2.0,4.0,90,0.00,,---,0.00,VWS V15.00,2015-01-30 07:27:00,
2015-01-30 02:32:00,31.7,29.1,29.99,SE,131,5.0,7.0,90,0.00,,---,0.00,VWS V15.00,2015-01-30 07:32:00,
2015-01-30 02:37:00,31.8,29.2,29.98,SE,130,3.0,6.0,90,0.00,,---,0.00,VWS V15.00,2015-01-30 07:37:00,
2015-01-30 02:42:00,31.9,29.3,29.98,SE,131,5.0,6.0,90,0.00,,---,0.00,VWS V15.00,2015-01-30 07:42:00,
2015-01-30 02:47:00,31.9,29.3,29.97,SE,129,0.0,5.0,90,0.00,,---,0.00,VWS V15.00,2015-01-30 07:47:00,
2015-01-30 02:52:00,32.0,29.4,29.97,SE,131,3.0,7.0,90,0.00,,---,0.00,VWS V15.00,2015-01-30 07:52:00,
2015-01-30 02:57:00,32.0,29.4,29.97,SE,131,2.0,6.0,90,0.00,,---,0.00,VWS V15.00,2015-01-30 07:57:00,
2015-01-30 03:02:00,32.1,29.5,29.97,SE,131,2.0,6.0,90,0.00,,---,0.00,VWS V15.00,2015-01-30 08:02:00,
2015-01-30 03:07:00,32.1,29.5,29.96,SE,131,5.0,8.0,90,0.00,,---,0.00,VWS V15.00,2015-01-30 08:07:00,
2015-01-30 03:12:00,32.2,29.6,29.96,SE,131,0.0,8.0,90,0.00,,---,0.00,VWS V15.00,2015-01-30 08:12:00,
2015-01-30 03:17:00,32.2,29.6,29.95,SE,131,3.0,7.0,90,0.00,,---,0.00,VWS V15.00,2015-01-30 08:17:00,
2015-01-30 03:22:00,32.2,29.6,29.95,SE,130,2.0,6.0,90,0.00,,---,0.00,VWS V15.00,2015-01-30 08:22:00,
2015-01-30 03:27:00,32.3,30.0,29.95,SE,131,2.0,5.0,91,0.00,,---,0.00,VWS V15.00,2015-01-30 08:27:00,
2015-01-30 03:32:00,32.3,30.0,29.94,SE,129,0.0,5.0,91,0.00,,---,0.00,VWS V15.00,2015-01-30 08:32:00,
2015-01-30 03:37:00,32.3,30.0,29.94,SE,129,2.0,6.0,91,0.00,,---,0.00,VWS V15.00,2015-01-30 08:37:00,
2015-01-30 03:42:00,32.4,30.1,29.94,SE,129,5.0,7.0,91,0.00,,---,0.00,VWS V15.00,2015-01-30 08:42:00,
2015-01-30 03:47:00,32.5,30.2,29.93,SE,127,4.0,7.0,91,0.00,,---,0.00,VWS V15.00,2015-01-30 08:47:00,
2015-01-30 03:52:00,32.6,30.3,29.92,SE,131,3.0,8.0,91,0.00,,---,0.00,VWS V15.00,2015-01-30 08:52:00,
2015-01-30 03:57:00,32.7,30.4,29.92,SE,132,10.0,11.0,91,0.00,,---,0.00,VWS V15.00,2015-01-30 08:57:00,
2015-01-30 04:02:00,32.7,30.4,29.92,SE,131,6.0,9.0,91,0.00,,---,0.00,VWS V15.00,2015-01-30 09:02:00,
2015-01-30 04:07:00,32.8,30.5,29.92,SE,127,4.0,12.0,91,0.00,,---,0.00,VWS V15.00,2015-01-30 09:07:00,
2015-01-30 04:12:00,32.9,30.6,29.92,SE,129,3.0,11.0,91,0.00,,---,0.00,VWS V15.00,2015-01-30 09:12:00,
2015-01-30 04:17:00,32.9,30.6,29.91,SE,132,5.0,12.0,91,0.00,,---,0.00,VWS V15.00,2015-01-30 09:17:00,
2015-01-30 04:22:00,33.1,30.8,29.91,SE,135,1.0,11.0,91,0.00,,---,0.00,VWS V15.00,2015-01-30 09:22:00,
2015-01-30 04:27:00,33.2,30.9,29.91,SE,125,10.0,12.0,91,0.00,,---,0.00,VWS V15.00,2015-01-30 09:27:00,
2015-01-30 04:32:00,33.4,31.1,29.90,SSE,156,6.0,14.0,91,0.00,,---,0.00,VWS V15.00,2015-01-30 09:32:00,
2015-01-30 04:37:00,33.5,31.2,29.90,SSE,156,10.0,12.0,91,0.00,,---,0.00,VWS V15.00,2015-01-30 09:37:00,
2015-01-30 04:42:00,33.7,31.4,29.90,SSE,152,7.0,13.0,91,0.00,,---,0.00,VWS V15.00,2015-01-30 09:42:00,
2015-01-30 04:47:00,33.7,31.4,29.89,SE,134,8.0,12.0,91,0.00,,---,0.00,VWS V15.00,2015-01-30 09:47:00,
2015-01-30 04:52:00,33.7,31.4,29.89,ESE,108,12.0,13.0,91,0.00,,---,0.00,VWS V15.00,2015-01-30 09:52:00,
2015-01-30 04:57:00,33.7,31.6,29.89,SSE,153,6.0,10.0,92,0.00,,---,0.00,VWS V15.00,2015-01-30 09:57:00,
2015-01-30 05:02:00,33.7,31.6,29.89,SE,135,8.0,9.0,92,0.00,,---,0.00,VWS V15.00,2015-01-30 10:02:00,
2015-01-30 05:07:00,33.8,31.7,29.89,SE,138,7.0,13.0,92,0.00,,---,0.00,VWS V15.00,2015-01-30 10:07:00,
2015-01-30 05:12:00,33.9,31.8,29.90,SSE,155,4.0,10.0,92,0.00,,---,0.00,VWS V15.00,2015-01-30 10:12:00,
2015-01-30 05:17:00,34.0,31.9,29.89,SE,138,0.0,7.0,92,0.00,,---,0.00,VWS V15.00,2015-01-30 10:17:00,
2015-01-30 05:22:00,34.1,32.0,29.89,SE,144,2.0,11.0,92,0.00,,---,0.00,VWS V15.00,2015-01-30 10:22:00,
2015-01-30 05:27:00,34.2,32.1,29.89,SE,136,4.0,7.0,92,0.00,,---,0.00,VWS V15.00,2015-01-30 10:27:00,
2015-01-30 05:32:00,34.2,32.1,29.89,SE,146,0.0,5.0,92,0.00,,---,0.00,VWS V15.00,2015-01-30 10:32:00,
2015-01-30 05:37:00,34.2,32.1,29.89,SE,136,7.0,11.0,92,0.00,,---,0.00,VWS V15.00,2015-01-30 10:37:00,
2015-01-30 05:42:00,34.2,32.4,29.89,SSE,166,4.0,15.0,93,0.00,,---,0.00,VWS V15.00,2015-01-30 10:42:00,
2015-01-30 05:47:00,34.4,32.6,29.88,South,176,1.0,3.0,93,0.00,,---,0.00,VWS V15.00,2015-01-30 10:47:00,
2015-01-30 05:52:00,34.4,32.6,29.89,SE,137,2.0,6.0,93,0.00,,---,0.00,VWS V15.00,2015-01-30 10:52:00,
2015-01-30 05:57:00,34.4,32.6,29.88,SE,135,0.0,5.0,93,0.00,,---,0.00,VWS V15.00,2015-01-30 10:57:00,
2015-01-30 06:02:00,34.3,32.5,29.88,SE,139,3.0,6.0,93,0.00,,---,0.00,VWS V15.00,2015-01-30 11:02:00,
2015-01-30 06:07:00,34.2,32.4,29.88,SE,130,6.0,7.0,93,0.00,,---,0.00,VWS V15.00,2015-01-30 11:07:00,
2015-01-30 06:12:00,34.2,32.4,29.88,SE,137,4.0,4.0,93,0.01,,---,0.01,VWS V15.00,2015-01-30 11:12:00,
2015-01-30 06:17:00,34.3,32.8,29.88,SSE,147,0.0,7.0,94,0.01,,---,0.01,VWS V15.00,2015-01-30 11:17:00,
2015-01-30 06:22:00,34.3,32.8,29.88,SSE,147,3.0,3.0,94,0.01,,---,0.01,VWS V15.00,2015-01-30 11:22:00,
2015-01-30 06:27:00,34.4,32.9,29.88,SSE,147,0.0,1.0,94,0.01,,---,0.01,VWS V15.00,2015-01-30 11:27:00,
2015-01-30 06:32:00,34.5,33.0,29.87,SSE,147,0.0,2.0,94,0.01,,---,0.01,VWS V15.00,2015-01-30 11:32:00,
2015-01-30 06:37:00,34.5,33.0,29.87,SE,146,0.0,0.0,94,0.02,,---,0.02,VWS V15.00,2015-01-30 11:37:00,
2015-01-30 06:42:00,34.5,33.0,29.87,SE,146,0.0,1.0,94,0.02,,---,0.02,VWS V15.00,2015-01-30 11:42:00,
2015-01-30 06:47:00,34.5,33.0,29.87,SSE,147,0.0,3.0,94,0.02,,---,0.02,VWS V15.00,2015-01-30 11:47:00,
2015-01-30 06:52:00,34.5,33.0,29.87,SSE,147,3.0,4.0,94,0.02,,---,0.02,VWS V15.00,2015-01-30 11:52:00,
2015-01-30 06:57:00,34.4,32.9,29.87,SSE,147,2.0,3.0,94,0.02,,---,0.02,VWS V15.00,2015-01-30 11:57:00,
2015-01-30 07:02:00,34.4,32.9,29.87,SSE,148,0.0,0.0,94,0.02,,---,0.02,VWS V15.00,2015-01-30 12:02:00,
2015-01-30 07:07:00,34.4,32.9,29.87,SSE,147,0.0,0.0,94,0.02,,---,0.02,VWS V15.00,2015-01-30 12:07:00,
2015-01-30 07:12:00,34.3,32.8,29.87,SSE,147,0.0,0.0,94,0.01,,---,0.02,VWS V15.00,2015-01-30 12:12:00,
2015-01-30 07:17:00,34.4,33.1,29.86,SSE,147,0.0,2.0,95,0.01,,---,0.02,VWS V15.00,2015-01-30 12:17:00,
2015-01-30 07:22:00,34.5,33.2,29.86,SE,146,0.0,0.0,95,0.01,,---,0.02,VWS V15.00,2015-01-30 12:22:00,
2015-01-30 07:27:00,34.6,33.3,29.86,SSE,147,0.0,0.0,95,0.01,,---,0.02,VWS V15.00,2015-01-30 12:27:00,
2015-01-30 07:32:00,34.6,33.3,29.86,SSE,147,0.0,0.0,95,0.01,,---,0.02,VWS V15.00,2015-01-30 12:32:00,
2015-01-30 07:37:00,34.7,33.4,29.86,SSE,147,0.0,0.0,95,0.01,,---,0.02,VWS V15.00,2015-01-30 12:37:00,
2015-01-30 07:42:00,34.7,33.4,29.85,SSE,147,0.0,0.0,95,0.00,,---,0.02,VWS V15.00,2015-01-30 12:42:00,
2015-01-30 07:47:00,34.7,33.4,29.85,SSE,148,0.0,0.0,95,0.00,,---,0.02,VWS V15.00,2015-01-30 12:47:00,
2015-01-30 07:52:00,34.7,33.4,29.85,SSE,147,0.0,1.0,95,0.00,,---,0.02,VWS V15.00,2015-01-30 12:52:00,
2015-01-30 07:57:00,34.9,33.9,29.84,SSE,147,0.0,0.0,96,0.01,,---,0.03,VWS V15.00,2015-01-30 12:57:00,
2015-01-30 08:02:00,35.0,34.0,29.84,SSE,147,0.0,0.0,96,0.01,,---,0.03,VWS V15.00,2015-01-30 13:02:00,
2015-01-30 08:07:00,35.1,33.8,29.84,SSE,147,0.0,2.0,95,0.01,,---,0.03,VWS V15.00,2015-01-30 13:07:00,
2015-01-30 08:12:00,35.2,34.2,29.84,SE,146,0.0,1.0,96,0.01,,---,0.03,VWS V15.00,2015-01-30 13:12:00,
2015-01-30 08:17:00,35.4,34.4,29.84,SSE,147,0.0,0.0,96,0.01,,---,0.03,VWS V15.00,2015-01-30 13:17:00,
2015-01-30 08:22:00,35.6,34.6,29.84,SSE,148,0.0,2.0,96,0.01,,---,0.03,VWS V15.00,2015-01-30 13:22:00,
2015-01-30 08:27:00,35.7,34.7,29.84,SSE,147,0.0,0.0,96,0.01,,---,0.03,VWS V15.00,2015-01-30 13:27:00,
2015-01-30 08:32:00,35.8,34.8,29.83,SSE,147,0.0,0.0,96,0.01,,---,0.03,VWS V15.00,2015-01-30 13:32:00,
2015-01-30 08:37:00,35.9,34.9,29.83,SSE,147,0.0,0.0,96,0.01,,---,0.03,VWS V15.00,2015-01-30 13:37:00,
2015-01-30 08:42:00,35.9,34.9,29.83,SSE,147,0.0,1.0,96,0.01,,---,0.03,VWS V15.00,2015-01-30 13:42:00,
2015-01-30 08:47:00,35.9,34.9,29.83,SSE,147,0.0,1.0,96,0.01,,---,0.03,VWS V15.00,2015-01-30 13:47:00,
2015-01-30 08:52:00,35.8,34.8,29.83,SSE,148,0.0,0.0,96,0.01,,---,0.03,VWS V15.00,2015-01-30 13:52:00,
2015-01-30 08:57:00,35.8,34.8,29.83,SSE,147,0.0,0.0,96,0.00,,---,0.03,VWS V15.00,2015-01-30 13:57:00,
2015-01-30 09:02:00,35.7,34.7,29.83,SSE,147,0.0,1.0,96,0.00,,---,0.03,VWS V15.00,2015-01-30 14:02:00,
2015-01-30 09:07:00,35.7,34.7,29.83,SSE,147,2.0,2.0,96,0.00,,---,0.03,VWS V15.00,2015-01-30 14:07:00,
2015-01-30 09:12:00,35.7,34.7,29.83,SSE,147,0.0,1.0,96,0.00,,---,0.03,VWS V15.00,2015-01-30 14:12:00,
2015-01-30 09:17:00,35.8,34.8,29.83,SSE,147,0.0,1.0,96,0.00,,---,0.03,VWS V15.00,2015-01-30 14:17:00,
2015-01-30 09:22:00,35.9,34.9,29.83,SSE,147,1.0,2.0,96,0.00,,---,0.03,VWS V15.00,2015-01-30 14:22:00,
2015-01-30 09:26:00,35.9,34.9,29.82,SSE,148,0.0,1.0,96,0.00,,---,0.03,VWS V15.00,2015-01-30 14:26:00,
2015-01-30 09:31:00,36.0,35.0,29.82,SSE,147,0.0,1.0,96,0.00,,---,0.03,VWS V15.00,2015-01-30 14:31:00,
2015-01-30 09:36:00,36.1,35.1,29.82,SSE,147,0.0,0.0,96,0.00,,---,0.03,VWS V15.00,2015-01-30 14:36:00,
2015-01-30 09:41:00,36.2,35.2,29.82,SSE,147,0.0,0.0,96,0.01,,---,0.04,VWS V15.00,2015-01-30 14:41:00,
2015-01-30 09:46:00,35.9,34.9,29.82,SSE,147,0.0,0.0,96,0.01,,---,0.04,VWS V15.00,2015-01-30 14:46:00,
2015-01-30 09:51:00,35.6,34.3,29.82,SSE,147,0.0,2.0,95,0.01,,---,0.04,VWS V15.00,2015-01-30 14:51:00,
2015-01-30 09:56:00,34.9,33.6,29.82,SSE,147,2.0,2.0,95,0.01,,---,0.04,VWS V15.00,2015-01-30 14:56:00,
2015-01-30 10:01:00,34.6,33.3,29.82,SSE,147,0.0,1.0,95,0.01,,---,0.04,VWS V15.00,2015-01-30 15:01:00,
2015-01-30 10:06:00,34.5,33.2,29.82,SSE,147,0.0,0.0,95,0.01,,---,0.04,VWS V15.00,2015-01-30 15:06:00,
2015-01-30 10:11:00,34.5,33.5,29.82,SE,146,0.0,0.0,96,0.02,,---,0.05,VWS V15.00,2015-01-30 15:11:00,
2015-01-30 10:16:00,34.5,33.5,29.82,SSE,148,1.0,2.0,96,0.02,,---,0.05,VWS V15.00,2015-01-30 15:16:00,
2015-01-30 10:21:00,34.7,33.7,29.82,SSE,147,0.0,2.0,96,0.02,,---,0.05,VWS V15.00,2015-01-30 15:21:00,
2015-01-30 10:26:00,34.7,33.7,29.82,SSE,147,0.0,2.0,96,0.02,,---,0.05,VWS V15.00,2015-01-30 15:26:00,
2015-01-30 10:31:00,34.7,33.7,29.82,SSE,147,0.0,1.0,96,0.02,,---,0.05,VWS V15.00,2015-01-30 15:31:00,
2015-01-30 10:36:00,34.8,33.8,29.81,SSE,147,0.0,1.0,96,0.03,,---,0.06,VWS V15.00,2015-01-30 15:36:00,
2015-01-30 10:41:00,34.7,33.7,29.81,SE,146,1.0,1.0,96,0.02,,---,0.06,VWS V15.00,2015-01-30 15:41:00,
2015-01-30 10:46:00,34.7,33.7,29.81,SSE,147,0.0,0.0,96,0.02,,---,0.06,VWS V15.00,2015-01-30 15:46:00,
2015-01-30 10:51:00,34.7,33.7,29.80,SSE,147,0.0,1.0,96,0.03,,---,0.07,VWS V15.00,2015-01-30 15:51:00,
2015-01-30 10:56:00,34.6,33.6,29.80,SSE,147,0.0,0.0,96,0.03,,---,0.07,VWS V15.00,2015-01-30 15:56:00,
2015-01-30 11:01:00,34.6,33.6,29.79,SSE,148,0.0,0.0,96,0.03,,---,0.07,VWS V15.00,2015-01-30 16:01:00,
2015-01-30 11:06:00,34.6,33.6,29.79,SSE,147,0.0,2.0,96,0.04,,---,0.08,VWS V15.00,2015-01-30 16:06:00,
2015-01-30 11:11:00,34.6,33.6,29.78,SSE,147,1.0,2.0,96,0.04,,---,0.08,VWS V15.00,2015-01-30 16:11:00,
2015-01-30 11:16:00,34.4,33.4,29.78,SSE,147,0.0,0.0,96,0.03,,---,0.08,VWS V15.00,2015-01-30 16:16:00,
2015-01-30 11:21:00,34.2,33.2,29.78,SSE,147,0.0,0.0,96,0.03,,---,0.08,VWS V15.00,2015-01-30 16:21:00,
2015-01-30 11:26:00,34.1,33.1,29.78,SSE,147,0.0,0.0,96,0.04,,---,0.09,VWS V15.00,2015-01-30 16:26:00,
2015-01-30 11:31:00,34.1,33.1,29.78,SSE,147,0.0,1.0,96,0.04,,---,0.09,VWS V15.00,2015-01-30 16:31:00,
2015-01-30 11:36:00,34.1,33.1,29.77,SSE,148,0.0,1.0,96,0.03,,---,0.09,VWS V15.00,2015-01-30 16:36:00,
2015-01-30 11:41:00,34.1,33.1,29.77,SSE,147,0.0,0.0,96,0.03,,---,0.09,VWS V15.00,2015-01-30 16:41:00,
2015-01-30 11:46:00,34.1,33.1,29.77,SSE,147,0.0,2.0,96,0.03,,---,0.09,VWS V15.00,2015-01-30 16:46:00,
2015-01-30 11:51:00,34.0,33.0,29.77,SSE,147,1.0,1.0,96,0.02,,---,0.09,VWS V15.00,2015-01-30 16:51:00,
2015-01-30 11:56:00,33.9,32.9,29.76,SSE,147,0.0,2.0,96,0.02,,---,0.09,VWS V15.00,2015-01-30 16:56:00,
2015-01-30 12:01:00,33.8,32.8,29.76,SSE,147,0.0,2.0,96,0.02,,---,0.09,VWS V15.00,2015-01-30 17:01:00,
2015-01-30 12:06:00,33.8,32.8,29.76,SSE,147,1.0,2.0,96,0.01,,---,0.09,VWS V15.00,2015-01-30 17:06:00,
2015-01-30 12:11:00,33.8,32.8,29.76,SSE,148,0.0,2.0,96,0.01,,---,0.09,VWS V15.00,2015-01-30 17:11:00,
2015-01-30 12:16:00,33.8,32.8,29.76,SSE,147,0.0,1.0,96,0.01,,---,0.09,VWS V15.00,2015-01-30 17:16:00,
2015-01-30 12:21:00,33.8,32.8,29.75,SSE,147,0.0,1.0,96,0.01,,---,0.09,VWS V15.00,2015-01-30 17:21:00,
2015-01-30 12:26:00,33.8,32.8,29.75,SSE,148,0.0,1.0,96,0.01,,---,0.09,VWS V15.00,2015-01-30 17:26:00,
2015-01-30 12:31:00,33.8,32.8,29.75,SSE,148,0.0,3.0,96,0.00,,---,0.09,VWS V15.00,2015-01-30 17:31:00,
2015-01-30 12:36:00,33.7,32.7,29.74,SSE,148,1.0,2.0,96,0.00,,---,0.09,VWS V15.00,2015-01-30 17:36:00,
2015-01-30 12:41:00,33.7,32.7,29.74,SSE,147,0.0,3.0,96,0.00,,---,0.09,VWS V15.00,2015-01-30 17:41:00,
2015-01-30 12:46:00,33.8,33.0,29.75,SSE,147,0.0,2.0,97,0.00,,---,0.09,VWS V15.00,2015-01-30 17:46:00,
2015-01-30 12:51:00,33.7,32.7,29.74,SSE,147,0.0,1.0,96,0.00,,---,0.09,VWS V15.00,2015-01-30 17:51:00,
2015-01-30 12:56:00,33.7,32.7,29.74,SSE,147,0.0,2.0,96,0.00,,---,0.09,VWS V15.00,2015-01-30 17:56:00,
2015-01-30 13:01:00,33.6,32.6,29.73,SSE,147,0.0,2.0,96,0.00,,---,0.09,VWS V15.00,2015-01-30 18:01:00,
2015-01-30 13:06:00,33.6,32.6,29.73,SSE,148,1.0,3.0,96,0.00,,---,0.09,VWS V15.00,2015-01-30 18:06:00,
2015-01-30 13:11:00,33.6,32.6,29.73,SSE,147,2.0,3.0,96,0.00,,---,0.09,VWS V15.00,2015-01-30 18:11:00,
2015-01-30 13:16:00,33.5,32.5,29.72,North,11,5.0,7.0,96,0.00,,---,0.09,VWS V15.00,2015-01-30 18:16:00,
2015-01-30 13:21:00,33.0,32.0,29.72,NW,323,4.0,7.0,96,0.00,,---,0.09,VWS V15.00,2015-01-30 18:21:00,
2015-01-30 13:26:00,32.8,31.8,29.72,NW,324,2.0,6.0,96,0.00,,---,0.09,VWS V15.00,2015-01-30 18:26:00,
2015-01-30 13:31:00,32.8,31.8,29.72,NW,323,0.0,2.0,96,0.00,,---,0.09,VWS V15.00,2015-01-30 18:31:00,
2015-01-30 13:36:00,32.8,31.8,29.72,NW,323,0.0,5.0,96,0.00,,---,0.09,VWS V15.00,2015-01-30 18:36:00,
2015-01-30 13:41:00,32.8,31.8,29.72,NW,323,0.0,5.0,96,0.00,,---,0.09,VWS V15.00,2015-01-30 18:41:00,
2015-01-30 13:46:00,32.8,31.8,29.72,NW,324,0.0,3.0,96,0.00,,---,0.09,VWS V15.00,2015-01-30 18:46:00,
2015-01-30 13:51:00,32.9,31.9,29.72,NW,323,0.0,1.0,96,0.00,,---,0.09,VWS V15.00,2015-01-30 18:51:00,
2015-01-30 13:56:00,33.0,32.0,29.73,NW,323,3.0,3.0,96,0.00,,---,0.09,VWS V15.00,2015-01-30 18:56:00,
2015-01-30 14:01:00,33.1,32.1,29.73,NW,323,0.0,4.0,96,0.00,,---,0.09,VWS V15.00,2015-01-30 19:01:00,
2015-01-30 14:06:00,33.1,32.1,29.72,NW,324,2.0,2.0,96,0.00,,---,0.09,VWS V15.00,2015-01-30 19:06:00,
2015-01-30 14:11:00,33.1,32.1,29.72,NW,323,2.0,4.0,96,0.00,,---,0.09,VWS V15.00,2015-01-30 19:11:00,
2015-01-30 14:16:00,33.0,32.0,29.73,NW,324,3.0,3.0,96,0.00,,---,0.09,VWS V15.00,2015-01-30 19:16:00,
2015-01-30 14:21:00,33.0,32.0,29.73,NW,324,1.0,6.0,96,0.00,,---,0.09,VWS V15.00,2015-01-30 19:21:00,
2015-01-30 14:26:00,32.9,31.6,29.72,NW,324,1.0,4.0,95,0.00,,---,0.09,VWS V15.00,2015-01-30 19:26:00,
2015-01-30 14:31:00,32.9,31.6,29.72,NW,325,6.0,7.0,95,0.00,,---,0.09,VWS V15.00,2015-01-30 19:31:00,
2015-01-30 14:36:00,32.9,31.6,29.72,NW,322,3.0,7.0,95,0.00,,---,0.09,VWS V15.00,2015-01-30 19:36:00,
2015-01-30 14:41:00,32.9,31.6,29.72,NW,324,2.0,5.0,95,0.00,,---,0.09,VWS V15.00,2015-01-30 19:41:00,
2015-01-30 14:46:00,32.9,31.6,29.72,NW,324,3.0,6.0,95,0.00,,---,0.09,VWS V15.00,2015-01-30 19:46:00,
2015-01-30 14:51:00,32.9,31.6,29.72,NW,324,0.0,4.0,95,0.00,,---,0.09,VWS V15.00,2015-01-30 19:51:00,
2015-01-30 14:56:00,32.9,31.6,29.72,NW,324,0.0,5.0,95,0.00,,---,0.09,VWS V15.00,2015-01-30 19:56:00,
2015-01-30 15:01:00,32.8,31.5,29.71,NW,324,2.0,5.0,95,0.00,,---,0.09,VWS V15.00,2015-01-30 20:01:00,
2015-01-30 15:06:00,32.8,31.5,29.71,NW,320,6.0,8.0,95,0.00,,---,0.09,VWS V15.00,2015-01-30 20:06:00,
2015-01-30 15:11:00,32.8,31.5,29.71,NNW,335,5.0,11.0,95,0.00,,---,0.09,VWS V15.00,2015-01-30 20:11:00,
2015-01-30 15:16:00,32.7,31.4,29.71,NW,324,1.0,4.0,95,0.00,,---,0.09,VWS V15.00,2015-01-30 20:16:00,
2015-01-30 15:21:00,32.7,31.4,29.72,NW,324,2.0,3.0,95,0.00,,---,0.09,VWS V15.00,2015-01-30 20:21:00,
2015-01-30 15:26:00,32.6,31.3,29.72,NW,325,4.0,5.0,95,0.00,,---,0.09,VWS V15.00,2015-01-30 20:26:00,
2015-01-30 15:31:00,32.7,31.4,29.72,NW,325,2.0,7.0,95,0.00,,---,0.09,VWS V15.00,2015-01-30 20:31:00,
2015-01-30 15:36:00,32.8,31.5,29.73,NW,325,0.0,1.0,95,0.00,,---,0.09,VWS V15.00,2015-01-30 20:36:00,
2015-01-30 15:41:00,32.8,31.5,29.72,NW,324,0.0,5.0,95,0.00,,---,0.09,VWS V15.00,2015-01-30 20:41:00,
2015-01-30 15:46:00,32.8,31.3,29.72,NW,324,7.0,7.0,94,0.00,,---,0.09,VWS V15.00,2015-01-30 20:46:00,
2015-01-30 15:51:00,32.8,31.3,29.72,NW,324,2.0,4.0,94,0.00,,---,0.09,VWS V15.00,2015-01-30 20:51:00,
2015-01-30 15:56:00,32.8,31.3,29.72,NNW,328,6.0,9.0,94,0.00,,---,0.09,VWS V15.00,2015-01-30 20:56:00,
2015-01-30 16:01:00,32.8,31.3,29.73,NW,314,3.0,6.0,94,0.00,,---,0.09,VWS V15.00,2015-01-30 21:01:00,
2015-01-30 16:06:00,32.8,31.3,29.72,NW,315,3.0,5.0,94,0.00,,---,0.09,VWS V15.00,2015-01-30 21:06:00,
2015-01-30 16:11:00,32.8,31.3,29.72,NW,320,4.0,6.0,94,0.00,,---,0.09,VWS V15.00,2015-01-30 21:11:00,
2015-01-30 16:16:00,32.8,31.3,29.72,NW,324,5.0,11.0,94,0.00,,---,0.09,VWS V15.00,2015-01-30 21:16:00,
2015-01-30 16:21:00,32.8,31.0,29.72,NW,322,3.0,10.0,93,0.00,,---,0.09,VWS V15.00,2015-01-30 21:21:00,
2015-01-30 16:26:00,32.8,31.0,29.72,NW,316,5.0,7.0,93,0.00,,---,0.09,VWS V15.00,2015-01-30 21:26:00,
2015-01-30 16:31:00,32.8,31.0,29.72,NW,317,3.0,12.0,93,0.00,,---,0.09,VWS V15.00,2015-01-30 21:31:00,
2015-01-30 16:36:00,32.7,30.9,29.72,NNW,330,3.0,14.0,93,0.00,,---,0.09,VWS V15.00,2015-01-30 21:36:00,
2015-01-30 16:41:00,32.7,30.9,29.72,NNW,331,5.0,10.0,93,0.00,,---,0.09,VWS V15.00,2015-01-30 21:41:00,
2015-01-30 16:46:00,32.6,30.8,29.72,NW,308,7.0,11.0,93,0.00,,---,0.09,VWS V15.00,2015-01-30 21:46:00,
2015-01-30 16:51:00,32.6,30.5,29.72,NNW,329,9.0,9.0,92,0.00,,---,0.09,VWS V15.00,2015-01-30 21:51:00,
2015-01-30 16:56:00,32.6,30.5,29.73,NNW,331,6.0,7.0,92,0.00,,---,0.09,VWS V15.00,2015-01-30 21:56:00,
2015-01-30 17:01:00,32.6,30.5,29.73,NW,325,5.0,6.0,92,0.00,,---,0.09,VWS V15.00,2015-01-30 22:01:00,
2015-01-30 17:06:00,32.5,30.4,29.73,NW,317,5.0,10.0,92,0.00,,---,0.09,VWS V15.00,2015-01-30 22:06:00,
2015-01-30 17:11:00,32.5,30.4,29.73,NNW,329,5.0,8.0,92,0.00,,---,0.09,VWS V15.00,2015-01-30 22:11:00,
2015-01-30 17:16:00,32.6,30.5,29.73,NNW,333,8.0,9.0,92,0.00,,---,0.09,VWS V15.00,2015-01-30 22:16:00,
2015-01-30 17:21:00,32.6,30.5,29.73,NNW,329,4.0,10.0,92,0.00,,---,0.09,VWS V15.00,2015-01-30 22:21:00,
2015-01-30 17:26:00,32.6,30.5,29.73,NW,322,5.0,9.0,92,0.00,,---,0.09,VWS V15.00,2015-01-30 22:26:00,
2015-01-30 17:31:00,32.5,30.4,29.73,NW,316,7.0,9.0,92,0.00,,---,0.09,VWS V15.00,2015-01-30 22:31:00,
2015-01-30 17:36:00,32.5,30.4,29.74,NNW,327,5.0,11.0,92,0.00,,---,0.09,VWS V15.00,2015-01-30 22:36:00,
2015-01-30 17:41:00,32.5,30.4,29.74,NNW,327,3.0,6.0,92,0.00,,---,0.09,VWS V15.00,2015-01-30 22:41:00,
2015-01-30 17:46:00,32.4,30.3,29.74,NNW,328,5.0,6.0,92,0.00,,---,0.09,VWS V15.00,2015-01-30 22:46:00,
2015-01-30 17:51:00,32.4,30.3,29.74,NW,322,10.0,10.0,92,0.00,,---,0.09,VWS V15.00,2015-01-30 22:51:00,
2015-01-30 17:56:00,32.4,30.3,29.73,NW,320,9.0,12.0,92,0.00,,---,0.09,VWS V15.00,2015-01-30 22:56:00,
2015-01-30 18:01:00,32.4,30.3,29.73,NNW,329,3.0,10.0,92,0.00,,---,0.09,VWS V15.00,2015-01-30 23:01:00,
2015-01-30 18:06:00,32.4,30.3,29.73,NNW,336,10.0,11.0,92,0.00,,---,0.09,VWS V15.00,2015-01-30 23:06:00,
2015-01-30 18:11:00,32.3,30.2,29.73,NW,316,3.0,9.0,92,0.00,,---,0.09,VWS V15.00,2015-01-30 23:11:00,
2015-01-30 18:16:00,32.4,30.3,29.73,NW,323,4.0,6.0,92,0.00,,---,0.09,VWS V15.00,2015-01-30 23:16:00,
2015-01-30 18:21:00,32.4,30.3,29.74,WNW,286,6.0,10.0,92,0.00,,---,0.09,VWS V15.00,2015-01-30 23:21:00,
2015-01-30 18:26:00,32.4,30.1,29.73,NNW,327,8.0,14.0,91,0.00,,---,0.09,VWS V15.00,2015-01-30 23:26:00,
2015-01-30 18:31:00,32.4,29.8,29.73,NNW,344,4.0,10.0,90,0.00,,---,0.09,VWS V15.00,2015-01-30 23:31:00,
2015-01-30 18:36:00,32.4,29.8,29.74,NW,310,13.0,13.0,90,0.00,,---,0.09,VWS V15.00,2015-01-30 23:36:00,
2015-01-30 18:41:00,32.4,29.8,29.74,NW,322,1.0,7.0,90,0.00,,---,0.09,VWS V15.00,2015-01-30 23:41:00,
2015-01-30 18:46:00,32.3,29.7,29.74,NW,312,6.0,11.0,90,0.00,,---,0.09,VWS V15.00,2015-01-30 23:46:00,
2015-01-30 18:51:00,32.3,29.7,29.73,WNW,301,5.0,11.0,90,0.00,,---,0.09,VWS V15.00,2015-01-30 23:51:00,
2015-01-30 18:56:00,32.2,29.6,29.73,NNW,331,6.0,10.0,90,0.00,,---,0.09,VWS V15.00,2015-01-30 23:56:00,
2015-01-30 19:01:00,32.1,29.5,29.73,NW,310,13.0,13.0,90,0.00,,---,0.09,VWS V15.00,2015-01-31 00:01:00,
2015-01-30 19:06:00,32.1,29.2,29.73,NW,308,5.0,9.0,89,0.00,,---,0.09,VWS V15.00,2015-01-31 00:06:00,
2015-01-30 19:11:00,32.1,29.2,29.73,NW,322,4.0,12.0,89,0.00,,---,0.09,VWS V15.00,2015-01-31 00:11:00,
2015-01-30 19:16:00,32.0,29.1,29.73,NW,317,3.0,7.0,89,0.00,,---,0.09,VWS V15.00,2015-01-31 00:16:00,
2015-01-30 19:21:00,32.0,29.1,29.73,NW,314,2.0,10.0,89,0.00,,---,0.09,VWS V15.00,2015-01-31 00:21:00,
2015-01-30 19:26:00,31.9,29.3,29.73,NW,318,9.0,9.0,90,0.00,,---,0.09,VWS V15.00,2015-01-31 00:26:00,
2015-01-30 19:31:00,31.9,29.3,29.73,NW,316,4.0,11.0,90,0.00,,---,0.09,VWS V15.00,2015-01-31 00:31:00,
2015-01-30 19:36:00,31.8,29.2,29.73,NW,314,9.0,12.0,90,0.00,,---,0.09,VWS V15.00,2015-01-31 00:36:00,
2015-01-30 19:41:00,31.7,29.1,29.72,NW,307,9.0,10.0,90,0.00,,---,0.09,VWS V15.00,2015-01-31 00:41:00,
2015-01-30 19:46:00,31.7,29.1,29.72,NW,311,2.0,11.0,90,0.00,,---,0.09,VWS V15.00,2015-01-31 00:46:00,
2015-01-30 19:51:00,31.7,29.1,29.73,NW,313,2.0,13.0,90,0.00,,---,0.09,VWS V15.00,2015-01-31 00:51:00,
2015-01-30 19:56:00,31.6,28.7,29.72,NW,317,9.0,14.0,89,0.00,,---,0.09,VWS V15.00,2015-01-31 00:56:00,
2015-01-30 20:01:00,31.6,28.7,29.73,NW,317,5.0,12.0,89,0.00,,---,0.09,VWS V15.00,2015-01-31 01:01:00,
2015-01-30 20:06:00,31.5,28.6,29.72,NW,317,5.0,12.0,89,0.00,,---,0.09,VWS V15.00,2015-01-31 01:06:00,
2015-01-30 20:11:00,31.3,28.4,29.72,NW,317,9.0,15.0,89,0.00,,---,0.09,VWS V15.00,2015-01-31 01:11:00,
2015-01-30 20:16:00,31.2,28.3,29.72,NW,317,7.0,9.0,89,0.00,,---,0.09,VWS V15.00,2015-01-31 01:16:00,
2015-01-30 20:21:00,31.2,28.3,29.72,NW,317,5.0,9.0,89,0.00,,---,0.09,VWS V15.00,2015-01-31 01:21:00,
2015-01-30 20:26:00,30.8,27.4,29.72,NW,316,6.0,13.0,87,0.00,,---,0.09,VWS V15.00,2015-01-31 01:26:00,
2015-01-30 20:31:00,30.6,26.4,29.72,NW,317,14.0,17.0,84,0.00,,---,0.09,VWS V15.00,2015-01-31 01:31:00,
2015-01-30 20:36:00,30.5,25.7,29.72,NW,317,17.0,17.0,82,0.00,,---,0.09,VWS V15.00,2015-01-31 01:36:00,
2015-01-30 20:40:00,30.5,25.4,29.72,NW,317,6.0,17.0,81,0.00,,---,0.09,VWS V15.00,2015-01-31 01:40:00,
2015-01-30 20:45:00,30.3,24.6,29.72,NW,316,12.0,20.0,79,0.00,,---,0.09,VWS V15.00,2015-01-31 01:45:00,
2015-01-30 20:50:00,30.3,24.6,29.72,NW,317,17.0,20.0,79,0.00,,---,0.09,VWS V15.00,2015-01-31 01:50:00,
2015-01-30 20:55:00,30.3,24.6,29.72,NW,317,7.0,20.0,79,0.00,,---,0.09,VWS V15.00,2015-01-31 01:55:00,
2015-01-30 21:00:00,30.2,24.5,29.72,NW,317,10.0,19.0,79,0.00,,---,0.09,VWS V15.00,2015-01-31 02:00:00,
2015-01-30 21:05:00,29.8,23.8,29.72,NW,317,17.0,19.0,78,0.00,,---,0.09,VWS V15.00,2015-01-31 02:05:00,
2015-01-30 21:10:00,29.5,23.2,29.72,NW,316,9.0,21.0,77,0.00,,---,0.09,VWS V15.00,2015-01-31 02:10:00,
2015-01-30 21:15:00,29.2,22.9,29.72,NW,316,7.0,18.0,77,0.00,,---,0.09,VWS V15.00,2015-01-31 02:15:00,
2015-01-30 21:20:00,28.9,22.3,29.73,NW,317,9.0,16.0,76,0.00,,---,0.09,VWS V15.00,2015-01-31 02:20:00,
2015-01-30 21:25:00,28.8,22.2,29.73,NW,316,5.0,15.0,76,0.00,,---,0.09,VWS V15.00,2015-01-31 02:25:00,
2015-01-30 21:30:00,28.7,22.1,29.73,NW,317,10.0,18.0,76,0.00,,---,0.09,VWS V15.00,2015-01-31 02:30:00,
2015-01-30 21:35:00,28.6,22.3,29.73,NW,317,5.0,17.0,77,0.00,,---,0.09,VWS V15.00,2015-01-31 02:35:00,
2015-01-30 21:40:00,28.3,21.7,29.73,NW,316,16.0,20.0,76,0.00,,---,0.09,VWS V15.00,2015-01-31 02:40:00,
2015-01-30 21:45:00,28.1,21.2,29.73,NW,317,13.0,19.0,75,0.00,,---,0.09,VWS V15.00,2015-01-31 02:45:00,
2015-01-30 21:50:00,28.0,21.1,29.73,NW,316,17.0,17.0,75,0.00,,---,0.09,VWS V15.00,2015-01-31 02:50:00,
2015-01-30 21:55:00,27.8,20.9,29.74,NW,316,9.0,17.0,75,0.00,,---,0.09,VWS V15.00,2015-01-31 02:55:00,
2015-01-30 22:00:00,27.8,21.2,29.74,NW,317,12.0,14.0,76,0.00,,---,0.09,VWS V15.00,2015-01-31 03:00:00,
2015-01-30 22:05:00,27.7,21.1,29.74,NW,316,14.0,14.0,76,0.00,,---,0.09,VWS V15.00,2015-01-31 03:05:00,
2015-01-30 22:10:00,27.6,20.7,29.74,NW,316,8.0,26.0,75,0.00,,---,0.09,VWS V15.00,2015-01-31 03:10:00,
2015-01-30 22:15:00,27.2,20.3,29.74,NW,316,15.0,24.0,75,0.00,,---,0.09,VWS V15.00,2015-01-31 03:15:00,
2015-01-30 22:20:00,27.0,20.1,29.74,NW,317,12.0,21.0,75,0.00,,---,0.09,VWS V15.00,2015-01-31 03:20:00,
2015-01-30 22:25:00,26.8,19.6,29.74,NW,316,24.0,25.0,74,0.00,,---,0.09,VWS V15.00,2015-01-31 03:25:00,
2015-01-30 22:30:00,26.5,19.0,29.73,NW,317,16.0,20.0,73,0.00,,---,0.09,VWS V15.00,2015-01-31 03:30:00,
2015-01-30 22:35:00,26.3,18.5,29.73,NW,316,13.0,28.0,72,0.00,,---,0.09,VWS V15.00,2015-01-31 03:35:00,
2015-01-30 22:40:00,26.1,18.3,29.73,NW,317,16.0,16.0,72,0.00,,---,0.09,VWS V15.00,2015-01-31 03:40:00,
2015-01-30 22:45:00,26.0,18.2,29.73,NW,317,11.0,14.0,72,0.00,,---,0.09,VWS V15.00,2015-01-31 03:45:00,
2015-01-30 22:50:00,25.8,18.0,29.73,NW,317,5.0,7.0,72,0.00,,---,0.09,VWS V15.00,2015-01-31 03:50:00,
2015-01-30 22:55:00,25.5,17.8,29.73,NW,316,13.0,26.0,72,0.00,,---,0.09,VWS V15.00,2015-01-31 03:55:00,
2015-01-30 23:00:00,25.4,17.3,29.74,NW,317,12.0,20.0,71,0.00,,---,0.09,VWS V15.00,2015-01-31 04:00:00,
2015-01-30 23:05:00,24.9,16.8,29.73,NW,316,18.0,25.0,71,0.00,,---,0.09,VWS V15.00,2015-01-31 04:05:00,
2015-01-30 23:10:00,24.6,16.5,29.73,NW,316,5.0,14.0,71,0.00,,---,0.09,VWS V15.00,2015-01-31 04:10:00,
2015-01-30 23:15:00,24.5,16.5,29.73,NW,317,10.0,14.0,71,0.00,,---,0.09,VWS V15.00,2015-01-31 04:15:00,
2015-01-30 23:20:00,24.4,16.4,29.73,NW,316,6.0,14.0,71,0.00,,---,0.09,VWS V15.00,2015-01-31 04:20:00,
2015-01-30 23:25:00,24.3,16.3,29.73,NW,316,14.0,18.0,71,0.00,,---,0.09,VWS V15.00,2015-01-31 04:25:00,
2015-01-30 23:30:00,23.9,15.9,29.73,NW,317,10.0,15.0,71,0.00,,---,0.09,VWS V15.00,2015-01-31 04:30:00,
2015-01-30 23:35:00,23.6,15.3,29.73,NW,317,13.0,13.0,70,0.00,,---,0.09,VWS V15.00,2015-01-31 04:35:00,